sensor_id;sensor_type;location;lat;lon;timestamp;temperature;humidity
19567;DHT22;9930;49.240;8.548;2023-08-08T00:00:18;18.10;65.70
19567;DHT22;9930;49.240;8.548;2023-08-08T00:02:44;18.10;65.90
19567;DHT22;9930;49.240;8.548;2023-08-08T00:05:10;18.10;65.90
19567;DHT22;9930;49.240;8.548;2023-08-08T00:07:38;18.10;65.90
19567;DHT22;9930;49.240;8.548;2023-08-08T00:10:06;18.10;66.10
19567;DHT22;9930;49.240;8.548;2023-08-08T00:12:32;18.10;66.10
19567;DHT22;9930;49.240;8.548;2023-08-08T00:15:00;18.10;66.20
19567;DHT22;9930;49.240;8.548;2023-08-08T00:17:26;18.00;66.30
19567;DHT22;9930;49.240;8.548;2023-08-08T00:19:52;18.10;66.40
19567;DHT22;9930;49.240;8.548;2023-08-08T00:22:18;18.10;66.50
19567;DHT22;9930;49.240;8.548;2023-08-08T00:24:44;18.10;66.60
19567;DHT22;9930;49.240;8.548;2023-08-08T00:27:12;18.10;66.60
19567;DHT22;9930;49.240;8.548;2023-08-08T00:29:40;18.10;66.60
19567;DHT22;9930;49.240;8.548;2023-08-08T00:32:06;18.00;66.50
19567;DHT22;9930;49.240;8.548;2023-08-08T00:34:31;18.00;66.70
19567;DHT22;9930;49.240;8.548;2023-08-08T00:36:57;18.00;66.90
19567;DHT22;9930;49.240;8.548;2023-08-08T00:39:23;18.00;66.90
19567;DHT22;9930;49.240;8.548;2023-08-08T00:41:48;18.00;67.00
19567;DHT22;9930;49.240;8.548;2023-08-08T00:44:14;18.10;67.20
19567;DHT22;9930;49.240;8.548;2023-08-08T00:46:42;18.10;67.20
19567;DHT22;9930;49.240;8.548;2023-08-08T00:49:11;18.10;67.30
19567;DHT22;9930;49.240;8.548;2023-08-08T00:51:40;18.10;67.30
19567;DHT22;9930;49.240;8.548;2023-08-08T00:54:06;18.10;67.40
19567;DHT22;9930;49.240;8.548;2023-08-08T00:56:33;18.10;67.40
19567;DHT22;9930;49.240;8.548;2023-08-08T00:59:02;18.10;67.40
19567;DHT22;9930;49.240;8.548;2023-08-08T01:01:31;18.10;67.50
19567;DHT22;9930;49.240;8.548;2023-08-08T01:03:58;18.10;67.50
19567;DHT22;9930;49.240;8.548;2023-08-08T01:06:46;18.10;67.60
19567;DHT22;9930;49.240;8.548;2023-08-08T01:09:30;18.10;67.80
19567;DHT22;9930;49.240;8.548;2023-08-08T01:12:02;18.00;67.50
19567;DHT22;9930;49.240;8.548;2023-08-08T01:14:32;18.00;67.30
19567;DHT22;9930;49.240;8.548;2023-08-08T01:17:00;18.00;67.40
19567;DHT22;9930;49.240;8.548;2023-08-08T01:19:31;18.00;67.40
19567;DHT22;9930;49.240;8.548;2023-08-08T01:22:04;17.90;67.50
19567;DHT22;9930;49.240;8.548;2023-08-08T01:24:32;17.90;67.60
19567;DHT22;9930;49.240;8.548;2023-08-08T01:27:02;17.90;67.60
19567;DHT22;9930;49.240;8.548;2023-08-08T01:29:34;17.80;67.70
19567;DHT22;9930;49.240;8.548;2023-08-08T01:31:59;17.80;67.80
19567;DHT22;9930;49.240;8.548;2023-08-08T01:34:29;17.80;67.80
19567;DHT22;9930;49.240;8.548;2023-08-08T01:37:02;17.70;67.90
19567;DHT22;9930;49.240;8.548;2023-08-08T01:39:32;17.70;67.90
19567;DHT22;9930;49.240;8.548;2023-08-08T01:42:01;17.60;68.00
19567;DHT22;9930;49.240;8.548;2023-08-08T01:44:28;17.60;68.10
19567;DHT22;9930;49.240;8.548;2023-08-08T01:46:56;17.60;68.40
19567;DHT22;9930;49.240;8.548;2023-08-08T01:49:22;17.60;68.50
19567;DHT22;9930;49.240;8.548;2023-08-08T01:51:47;17.60;68.80
19567;DHT22;9930;49.240;8.548;2023-08-08T01:54:14;17.60;68.80
19567;DHT22;9930;49.240;8.548;2023-08-08T01:56:39;17.50;68.70
19567;DHT22;9930;49.240;8.548;2023-08-08T01:59:08;17.50;68.70
19567;DHT22;9930;49.240;8.548;2023-08-08T02:01:36;17.50;68.70
19567;DHT22;9930;49.240;8.548;2023-08-08T02:04:02;17.50;68.70
19567;DHT22;9930;49.240;8.548;2023-08-08T02:06:30;17.50;68.70
19567;DHT22;9930;49.240;8.548;2023-08-08T02:08:58;17.50;68.80
19567;DHT22;9930;49.240;8.548;2023-08-08T02:11:27;17.40;68.90
19567;DHT22;9930;49.240;8.548;2023-08-08T02:13:55;17.40;69.00
19567;DHT22;9930;49.240;8.548;2023-08-08T02:16:22;17.40;69.00
19567;DHT22;9930;49.240;8.548;2023-08-08T02:18:48;17.30;69.00
19567;DHT22;9930;49.240;8.548;2023-08-08T02:21:16;17.30;69.00
19567;DHT22;9930;49.240;8.548;2023-08-08T02:23:44;17.30;69.20
19567;DHT22;9930;49.240;8.548;2023-08-08T02:26:12;17.20;69.10
19567;DHT22;9930;49.240;8.548;2023-08-08T02:28:37;17.20;69.20
19567;DHT22;9930;49.240;8.548;2023-08-08T02:31:06;17.20;69.40
19567;DHT22;9930;49.240;8.548;2023-08-08T02:33:32;17.10;69.40
19567;DHT22;9930;49.240;8.548;2023-08-08T02:35:58;17.10;69.60
19567;DHT22;9930;49.240;8.548;2023-08-08T02:38:23;17.10;69.70
19567;DHT22;9930;49.240;8.548;2023-08-08T02:40:52;17.00;69.70
19567;DHT22;9930;49.240;8.548;2023-08-08T02:43:18;17.00;69.80
19567;DHT22;9930;49.240;8.548;2023-08-08T02:45:44;16.90;69.90
19567;DHT22;9930;49.240;8.548;2023-08-08T02:48:15;16.90;70.00
19567;DHT22;9930;49.240;8.548;2023-08-08T02:50:42;16.90;70.10
19567;DHT22;9930;49.240;8.548;2023-08-08T02:53:11;16.90;70.20
19567;DHT22;9930;49.240;8.548;2023-08-08T02:55:36;16.80;70.30
19567;DHT22;9930;49.240;8.548;2023-08-08T02:58:04;16.80;70.50
19567;DHT22;9930;49.240;8.548;2023-08-08T03:00:30;16.80;70.70
19567;DHT22;9930;49.240;8.548;2023-08-08T03:02:59;16.80;70.70
19567;DHT22;9930;49.240;8.548;2023-08-08T03:05:27;16.80;70.90
19567;DHT22;9930;49.240;8.548;2023-08-08T03:07:52;16.80;70.90
19567;DHT22;9930;49.240;8.548;2023-08-08T03:10:20;16.80;71.00
19567;DHT22;9930;49.240;8.548;2023-08-08T03:12:48;16.80;71.10
19567;DHT22;9930;49.240;8.548;2023-08-08T03:15:18;16.80;71.20
19567;DHT22;9930;49.240;8.548;2023-08-08T03:17:44;16.80;71.40
19567;DHT22;9930;49.240;8.548;2023-08-08T03:20:10;16.80;71.40
19567;DHT22;9930;49.240;8.548;2023-08-08T03:22:39;16.80;71.40
19567;DHT22;9930;49.240;8.548;2023-08-08T03:25:05;16.80;71.40
19567;DHT22;9930;49.240;8.548;2023-08-08T03:27:31;16.80;71.60
19567;DHT22;9930;49.240;8.548;2023-08-08T03:29:59;16.80;71.70
19567;DHT22;9930;49.240;8.548;2023-08-08T03:32:27;16.80;71.80
19567;DHT22;9930;49.240;8.548;2023-08-08T03:34:54;16.80;71.70
19567;DHT22;9930;49.240;8.548;2023-08-08T03:37:19;16.80;71.70
19567;DHT22;9930;49.240;8.548;2023-08-08T03:39:45;16.80;71.70
19567;DHT22;9930;49.240;8.548;2023-08-08T03:42:11;16.80;71.80
19567;DHT22;9930;49.240;8.548;2023-08-08T03:44:39;16.80;71.80
19567;DHT22;9930;49.240;8.548;2023-08-08T03:47:05;16.80;71.80
19567;DHT22;9930;49.240;8.548;2023-08-08T03:49:33;16.80;71.70
19567;DHT22;9930;49.240;8.548;2023-08-08T03:51:59;16.70;71.80
19567;DHT22;9930;49.240;8.548;2023-08-08T03:54:25;16.70;71.70
19567;DHT22;9930;49.240;8.548;2023-08-08T03:56:52;16.70;71.80
19567;DHT22;9930;49.240;8.548;2023-08-08T03:59:18;16.70;72.00
19567;DHT22;9930;49.240;8.548;2023-08-08T04:01:46;16.70;72.00
19567;DHT22;9930;49.240;8.548;2023-08-08T04:04:11;16.60;72.00
19567;DHT22;9930;49.240;8.548;2023-08-08T04:06:37;16.70;72.10
19567;DHT22;9930;49.240;8.548;2023-08-08T04:09:03;16.60;72.20
19567;DHT22;9930;49.240;8.548;2023-08-08T04:11:29;16.60;72.20
19567;DHT22;9930;49.240;8.548;2023-08-08T04:13:54;16.60;72.30
19567;DHT22;9930;49.240;8.548;2023-08-08T04:16:24;16.60;72.40
19567;DHT22;9930;49.240;8.548;2023-08-08T04:18:50;16.60;72.50
19567;DHT22;9930;49.240;8.548;2023-08-08T04:21:15;16.60;72.50
19567;DHT22;9930;49.240;8.548;2023-08-08T04:23:41;16.60;72.60
19567;DHT22;9930;49.240;8.548;2023-08-08T04:26:09;16.60;72.70
19567;DHT22;9930;49.240;8.548;2023-08-08T04:28:37;16.60;72.80
19567;DHT22;9930;49.240;8.548;2023-08-08T04:31:02;16.60;72.90
19567;DHT22;9930;49.240;8.548;2023-08-08T04:33:30;16.60;72.90
19567;DHT22;9930;49.240;8.548;2023-08-08T04:35:58;16.60;73.00
19567;DHT22;9930;49.240;8.548;2023-08-08T04:38:24;16.60;73.10
19567;DHT22;9930;49.240;8.548;2023-08-08T04:40:50;16.60;73.10
19567;DHT22;9930;49.240;8.548;2023-08-08T04:43:17;16.70;73.20
19567;DHT22;9930;49.240;8.548;2023-08-08T04:45:45;16.70;73.20
19567;DHT22;9930;49.240;8.548;2023-08-08T04:48:14;16.70;73.20
19567;DHT22;9930;49.240;8.548;2023-08-08T04:50:41;16.70;73.30
19567;DHT22;9930;49.240;8.548;2023-08-08T04:53:10;16.70;73.30
19567;DHT22;9930;49.240;8.548;2023-08-08T04:55:35;16.70;73.50
19567;DHT22;9930;49.240;8.548;2023-08-08T04:58:01;16.70;73.40
19567;DHT22;9930;49.240;8.548;2023-08-08T05:00:27;16.80;73.50
19567;DHT22;9930;49.240;8.548;2023-08-08T05:02:53;16.80;73.60
19567;DHT22;9930;49.240;8.548;2023-08-08T05:05:19;16.80;73.60
19567;DHT22;9930;49.240;8.548;2023-08-08T05:07:49;16.80;73.60
19567;DHT22;9930;49.240;8.548;2023-08-08T05:10:15;16.90;73.80
19567;DHT22;9930;49.240;8.548;2023-08-08T05:12:43;16.90;73.60
19567;DHT22;9930;49.240;8.548;2023-08-08T05:15:11;16.90;73.50
19567;DHT22;9930;49.240;8.548;2023-08-08T05:17:37;16.90;73.60
19567;DHT22;9930;49.240;8.548;2023-08-08T05:20:05;17.00;73.60
19567;DHT22;9930;49.240;8.548;2023-08-08T05:22:34;17.00;73.70
19567;DHT22;9930;49.240;8.548;2023-08-08T05:25:00;17.00;73.70
19567;DHT22;9930;49.240;8.548;2023-08-08T05:27:27;17.10;73.70
19567;DHT22;9930;49.240;8.548;2023-08-08T05:29:53;17.10;73.70
19567;DHT22;9930;49.240;8.548;2023-08-08T05:32:22;17.10;73.70
19567;DHT22;9930;49.240;8.548;2023-08-08T05:34:49;17.20;73.60
19567;DHT22;9930;49.240;8.548;2023-08-08T05:37:21;17.20;73.70
19567;DHT22;9930;49.240;8.548;2023-08-08T05:39:46;17.20;73.70
19567;DHT22;9930;49.240;8.548;2023-08-08T05:42:12;17.30;73.70
19567;DHT22;9930;49.240;8.548;2023-08-08T05:44:42;17.30;73.80
19567;DHT22;9930;49.240;8.548;2023-08-08T05:47:08;17.30;73.70
19567;DHT22;9930;49.240;8.548;2023-08-08T05:49:34;17.40;73.80
19567;DHT22;9930;49.240;8.548;2023-08-08T05:51:59;17.40;73.80
19567;DHT22;9930;49.240;8.548;2023-08-08T05:54:26;17.50;73.80
19567;DHT22;9930;49.240;8.548;2023-08-08T05:56:55;17.60;74.50
19567;DHT22;9930;49.240;8.548;2023-08-08T05:59:24;17.70;75.60
19567;DHT22;9930;49.240;8.548;2023-08-08T06:01:50;18.00;76.40
19567;DHT22;9930;49.240;8.548;2023-08-08T06:04:16;18.30;77.00
19567;DHT22;9930;49.240;8.548;2023-08-08T06:06:46;18.60;77.00
19567;DHT22;9930;49.240;8.548;2023-08-08T06:09:15;19.00;76.50
19567;DHT22;9930;49.240;8.548;2023-08-08T06:11:43;19.40;76.20
19567;DHT22;9930;49.240;8.548;2023-08-08T06:14:11;19.70;75.70
19567;DHT22;9930;49.240;8.548;2023-08-08T06:16:39;20.00;75.00
19567;DHT22;9930;49.240;8.548;2023-08-08T06:19:04;20.40;74.60
19567;DHT22;9930;49.240;8.548;2023-08-08T06:21:35;20.70;73.80
19567;DHT22;9930;49.240;8.548;2023-08-08T06:24:05;20.90;73.00
19567;DHT22;9930;49.240;8.548;2023-08-08T06:26:33;21.10;72.00
19567;DHT22;9930;49.240;8.548;2023-08-08T06:28:59;21.40;71.60
19567;DHT22;9930;49.240;8.548;2023-08-08T06:31:27;21.50;70.70
19567;DHT22;9930;49.240;8.548;2023-08-08T06:33:53;21.70;70.00
19567;DHT22;9930;49.240;8.548;2023-08-08T06:36:21;21.80;69.50
19567;DHT22;9930;49.240;8.548;2023-08-08T06:38:46;22.00;69.00
19567;DHT22;9930;49.240;8.548;2023-08-08T06:41:12;22.10;68.40
19567;DHT22;9930;49.240;8.548;2023-08-08T06:43:40;22.20;68.00
19567;DHT22;9930;49.240;8.548;2023-08-08T06:46:06;22.20;67.70
19567;DHT22;9930;49.240;8.548;2023-08-08T06:48:31;22.30;67.50
19567;DHT22;9930;49.240;8.548;2023-08-08T06:50:57;22.50;67.20
19567;DHT22;9930;49.240;8.548;2023-08-08T06:53:26;22.60;66.50
19567;DHT22;9930;49.240;8.548;2023-08-08T06:55:54;22.60;65.90
19567;DHT22;9930;49.240;8.548;2023-08-08T06:58:22;22.70;65.50
19567;DHT22;9930;49.240;8.548;2023-08-08T07:00:49;22.70;64.80
19567;DHT22;9930;49.240;8.548;2023-08-08T07:03:16;22.70;64.90
19567;DHT22;9930;49.240;8.548;2023-08-08T07:05:42;22.70;64.70
19567;DHT22;9930;49.240;8.548;2023-08-08T07:08:07;22.70;64.70
19567;DHT22;9930;49.240;8.548;2023-08-08T07:10:34;22.70;64.60
19567;DHT22;9930;49.240;8.548;2023-08-08T07:13:01;22.70;64.50
19567;DHT22;9930;49.240;8.548;2023-08-08T07:15:27;22.70;64.40
19567;DHT22;9930;49.240;8.548;2023-08-08T07:17:59;22.70;63.90
19567;DHT22;9930;49.240;8.548;2023-08-08T07:20:26;22.70;63.70
19567;DHT22;9930;49.240;8.548;2023-08-08T07:22:53;22.70;63.70
19567;DHT22;9930;49.240;8.548;2023-08-08T07:25:21;22.70;63.90
19567;DHT22;9930;49.240;8.548;2023-08-08T07:27:49;22.70;63.70
19567;DHT22;9930;49.240;8.548;2023-08-08T07:30:15;22.70;63.80
19567;DHT22;9930;49.240;8.548;2023-08-08T07:32:43;22.70;63.70
19567;DHT22;9930;49.240;8.548;2023-08-08T07:35:09;22.60;63.30
19567;DHT22;9930;49.240;8.548;2023-08-08T07:37:36;22.60;63.50
19567;DHT22;9930;49.240;8.548;2023-08-08T07:40:02;22.60;63.40
19567;DHT22;9930;49.240;8.548;2023-08-08T07:42:29;22.60;63.50
19567;DHT22;9930;49.240;8.548;2023-08-08T07:44:59;22.60;63.70
19567;DHT22;9930;49.240;8.548;2023-08-08T07:47:25;22.60;63.90
19567;DHT22;9930;49.240;8.548;2023-08-08T07:49:52;22.60;63.80
19567;DHT22;9930;49.240;8.548;2023-08-08T07:52:22;22.70;63.50
19567;DHT22;9930;49.240;8.548;2023-08-08T07:54:51;22.80;63.60
19567;DHT22;9930;49.240;8.548;2023-08-08T07:57:19;22.80;63.70
19567;DHT22;9930;49.240;8.548;2023-08-08T07:59:47;23.00;63.80
19567;DHT22;9930;49.240;8.548;2023-08-08T08:02:13;23.10;63.00
19567;DHT22;9930;49.240;8.548;2023-08-08T08:04:41;23.20;62.60
19567;DHT22;9930;49.240;8.548;2023-08-08T08:07:06;23.30;61.90
19567;DHT22;9930;49.240;8.548;2023-08-08T08:09:33;23.30;61.60
19567;DHT22;9930;49.240;8.548;2023-08-08T08:12:01;23.40;61.20
19567;DHT22;9930;49.240;8.548;2023-08-08T08:14:27;23.40;60.70
19567;DHT22;9930;49.240;8.548;2023-08-08T08:16:53;23.40;60.50
19567;DHT22;9930;49.240;8.548;2023-08-08T08:19:19;23.40;60.50
19567;DHT22;9930;49.240;8.548;2023-08-08T08:21:45;23.50;60.40
19567;DHT22;9930;49.240;8.548;2023-08-08T08:24:15;23.50;60.10
19567;DHT22;9930;49.240;8.548;2023-08-08T08:26:41;23.50;59.90
19567;DHT22;9930;49.240;8.548;2023-08-08T08:29:06;23.50;60.10
19567;DHT22;9930;49.240;8.548;2023-08-08T08:31:35;23.60;60.10
19567;DHT22;9930;49.240;8.548;2023-08-08T08:34:03;23.60;59.80
19567;DHT22;9930;49.240;8.548;2023-08-08T08:36:30;23.70;59.60
19567;DHT22;9930;49.240;8.548;2023-08-08T08:38:58;23.70;59.40
19567;DHT22;9930;49.240;8.548;2023-08-08T08:41:29;23.70;58.90
19567;DHT22;9930;49.240;8.548;2023-08-08T08:43:57;23.70;58.90
19567;DHT22;9930;49.240;8.548;2023-08-08T08:46:26;23.70;58.80
19567;DHT22;9930;49.240;8.548;2023-08-08T08:48:54;23.60;58.60
19567;DHT22;9930;49.240;8.548;2023-08-08T08:51:22;23.70;58.90
19567;DHT22;9930;49.240;8.548;2023-08-08T08:53:48;23.70;58.60
19567;DHT22;9930;49.240;8.548;2023-08-08T08:56:16;23.70;58.50
19567;DHT22;9930;49.240;8.548;2023-08-08T08:58:42;23.80;58.40
19567;DHT22;9930;49.240;8.548;2023-08-08T09:01:13;23.80;58.30
19567;DHT22;9930;49.240;8.548;2023-08-08T09:03:41;23.80;58.00
19567;DHT22;9930;49.240;8.548;2023-08-08T09:06:10;23.90;58.20
19567;DHT22;9930;49.240;8.548;2023-08-08T09:08:37;24.00;58.30
19567;DHT22;9930;49.240;8.548;2023-08-08T09:11:02;24.00;58.30
19567;DHT22;9930;49.240;8.548;2023-08-08T09:13:36;24.00;58.20
19567;DHT22;9930;49.240;8.548;2023-08-08T09:16:05;24.10;58.00
19567;DHT22;9930;49.240;8.548;2023-08-08T09:18:32;24.20;57.90
19567;DHT22;9930;49.240;8.548;2023-08-08T09:20:59;24.20;57.70
19567;DHT22;9930;49.240;8.548;2023-08-08T09:23:25;24.30;57.90
19567;DHT22;9930;49.240;8.548;2023-08-08T09:25:53;24.30;57.30
19567;DHT22;9930;49.240;8.548;2023-08-08T09:28:18;24.30;56.90
19567;DHT22;9930;49.240;8.548;2023-08-08T09:30:44;24.40;56.90
19567;DHT22;9930;49.240;8.548;2023-08-08T09:33:11;24.40;56.60
19567;DHT22;9930;49.240;8.548;2023-08-08T09:35:41;24.40;56.70
19567;DHT22;9930;49.240;8.548;2023-08-08T09:38:06;24.40;56.50
19567;DHT22;9930;49.240;8.548;2023-08-08T09:40:33;24.40;56.70
19567;DHT22;9930;49.240;8.548;2023-08-08T09:42:59;24.50;56.80
19567;DHT22;9930;49.240;8.548;2023-08-08T09:45:26;24.60;56.80
19567;DHT22;9930;49.240;8.548;2023-08-08T09:47:53;24.60;56.80
19567;DHT22;9930;49.240;8.548;2023-08-08T09:50:19;24.70;56.70
19567;DHT22;9930;49.240;8.548;2023-08-08T09:52:46;24.80;56.50
19567;DHT22;9930;49.240;8.548;2023-08-08T09:55:15;24.90;56.30
19567;DHT22;9930;49.240;8.548;2023-08-08T09:57:45;25.00;56.50
19567;DHT22;9930;49.240;8.548;2023-08-08T10:00:14;25.00;55.60
19567;DHT22;9930;49.240;8.548;2023-08-08T10:02:47;25.10;55.40
19567;DHT22;9930;49.240;8.548;2023-08-08T10:05:15;25.10;55.30
19567;DHT22;9930;49.240;8.548;2023-08-08T10:07:45;25.10;55.00
19567;DHT22;9930;49.240;8.548;2023-08-08T10:10:11;25.10;54.80
19567;DHT22;9930;49.240;8.548;2023-08-08T10:12:40;25.10;54.70
19567;DHT22;9930;49.240;8.548;2023-08-08T10:15:08;25.20;54.70
19567;DHT22;9930;49.240;8.548;2023-08-08T10:17:36;25.20;54.50
19567;DHT22;9930;49.240;8.548;2023-08-08T10:20:08;25.30;54.20
19567;DHT22;9930;49.240;8.548;2023-08-08T10:22:44;25.30;54.30
19567;DHT22;9930;49.240;8.548;2023-08-08T10:25:27;25.30;53.40
19567;DHT22;9930;49.240;8.548;2023-08-08T10:28:09;25.20;53.20
19567;DHT22;9930;49.240;8.548;2023-08-08T10:33:41;25.30;53.20
19567;DHT22;9930;49.240;8.548;2023-08-08T10:36:10;25.30;53.40
19567;DHT22;9930;49.240;8.548;2023-08-08T10:41:17;25.40;53.30
19567;DHT22;9930;49.240;8.548;2023-08-08T10:43:54;25.50;53.40
19567;DHT22;9930;49.240;8.548;2023-08-08T10:46:33;25.50;52.80
19567;DHT22;9930;49.240;8.548;2023-08-08T10:49:05;25.60;53.00
19567;DHT22;9930;49.240;8.548;2023-08-08T10:51:39;25.70;53.00
19567;DHT22;9930;49.240;8.548;2023-08-08T10:56:55;25.70;51.90
19567;DHT22;9930;49.240;8.548;2023-08-08T11:01:55;25.60;51.80
19567;DHT22;9930;49.240;8.548;2023-08-08T11:04:25;25.60;51.30
19567;DHT22;9930;49.240;8.548;2023-08-08T11:06:55;25.60;51.40
19567;DHT22;9930;49.240;8.548;2023-08-08T11:09:23;25.60;51.40
19567;DHT22;9930;49.240;8.548;2023-08-08T11:11:49;25.60;51.80
19567;DHT22;9930;49.240;8.548;2023-08-08T11:14:22;25.70;51.50
19567;DHT22;9930;49.240;8.548;2023-08-08T11:16:51;25.70;51.00
19567;DHT22;9930;49.240;8.548;2023-08-08T11:19:20;25.70;51.10
19567;DHT22;9930;49.240;8.548;2023-08-08T11:21:48;25.80;50.80
19567;DHT22;9930;49.240;8.548;2023-08-08T11:24:15;25.80;50.90
19567;DHT22;9930;49.240;8.548;2023-08-08T11:26:42;25.90;51.00
19567;DHT22;9930;49.240;8.548;2023-08-08T11:29:12;26.00;50.70
19567;DHT22;9930;49.240;8.548;2023-08-08T11:31:38;26.00;50.40
19567;DHT22;9930;49.240;8.548;2023-08-08T11:34:04;26.10;50.30
19567;DHT22;9930;49.240;8.548;2023-08-08T11:36:34;26.20;49.80
19567;DHT22;9930;49.240;8.548;2023-08-08T11:39:04;26.20;49.30
19567;DHT22;9930;49.240;8.548;2023-08-08T11:41:37;26.30;49.10
19567;DHT22;9930;49.240;8.548;2023-08-08T11:44:09;26.30;48.80
19567;DHT22;9930;49.240;8.548;2023-08-08T11:46:47;26.40;48.80
19567;DHT22;9930;49.240;8.548;2023-08-08T11:49:14;26.40;47.80
19567;DHT22;9930;49.240;8.548;2023-08-08T11:51:45;26.50;48.30
19567;DHT22;9930;49.240;8.548;2023-08-08T11:54:14;26.50;47.50
19567;DHT22;9930;49.240;8.548;2023-08-08T11:56:42;26.50;48.00
19567;DHT22;9930;49.240;8.548;2023-08-08T11:59:07;26.60;48.10
19567;DHT22;9930;49.240;8.548;2023-08-08T12:01:37;26.60;48.00
19567;DHT22;9930;49.240;8.548;2023-08-08T12:04:07;26.70;48.00
19567;DHT22;9930;49.240;8.548;2023-08-08T12:06:37;26.70;47.90
19567;DHT22;9930;49.240;8.548;2023-08-08T12:09:04;26.90;47.80
19567;DHT22;9930;49.240;8.548;2023-08-08T12:11:34;26.90;47.70
19567;DHT22;9930;49.240;8.548;2023-08-08T12:14:07;27.00;47.50
19567;DHT22;9930;49.240;8.548;2023-08-08T12:16:37;27.10;47.80
19567;DHT22;9930;49.240;8.548;2023-08-08T12:19:07;27.10;46.90
19567;DHT22;9930;49.240;8.548;2023-08-08T12:21:38;27.20;46.80
19567;DHT22;9930;49.240;8.548;2023-08-08T12:24:06;27.20;46.60
19567;DHT22;9930;49.240;8.548;2023-08-08T12:26:34;27.20;46.10
19567;DHT22;9930;49.240;8.548;2023-08-08T12:29:00;27.20;46.10
19567;DHT22;9930;49.240;8.548;2023-08-08T12:31:27;27.20;46.10
19567;DHT22;9930;49.240;8.548;2023-08-08T12:33:56;27.20;46.00
19567;DHT22;9930;49.240;8.548;2023-08-08T12:36:23;27.20;46.10
19567;DHT22;9930;49.240;8.548;2023-08-08T12:38:49;27.20;46.00
19567;DHT22;9930;49.240;8.548;2023-08-08T12:41:15;27.20;45.80
19567;DHT22;9930;49.240;8.548;2023-08-08T12:43:40;27.20;45.90
19567;DHT22;9930;49.240;8.548;2023-08-08T12:46:08;27.20;46.00
19567;DHT22;9930;49.240;8.548;2023-08-08T12:48:34;27.20;45.40
19567;DHT22;9930;49.240;8.548;2023-08-08T12:51:00;27.20;45.10
19567;DHT22;9930;49.240;8.548;2023-08-08T12:53:27;27.20;45.20
19567;DHT22;9930;49.240;8.548;2023-08-08T12:55:53;27.20;44.90
19567;DHT22;9930;49.240;8.548;2023-08-08T12:58:21;27.20;44.90
19567;DHT22;9930;49.240;8.548;2023-08-08T13:00:47;27.10;44.80
19567;DHT22;9930;49.240;8.548;2023-08-08T13:03:13;27.10;45.00
19567;DHT22;9930;49.240;8.548;2023-08-08T13:05:39;27.10;44.80
19567;DHT22;9930;49.240;8.548;2023-08-08T13:08:05;27.20;44.90
19567;DHT22;9930;49.240;8.548;2023-08-08T13:10:31;27.20;44.90
19567;DHT22;9930;49.240;8.548;2023-08-08T13:13:01;27.20;44.90
19567;DHT22;9930;49.240;8.548;2023-08-08T13:15:27;27.20;44.20
19567;DHT22;9930;49.240;8.548;2023-08-08T13:17:53;27.30;44.30
19567;DHT22;9930;49.240;8.548;2023-08-08T13:20:19;27.20;44.20
19567;DHT22;9930;49.240;8.548;2023-08-08T13:22:47;27.20;44.30
19567;DHT22;9930;49.240;8.548;2023-08-08T13:25:15;27.20;44.30
19567;DHT22;9930;49.240;8.548;2023-08-08T13:27:41;27.20;44.20
19567;DHT22;9930;49.240;8.548;2023-08-08T13:30:08;27.20;44.20
19567;DHT22;9930;49.240;8.548;2023-08-08T13:32:34;27.20;44.10
19567;DHT22;9930;49.240;8.548;2023-08-08T13:35:03;27.30;44.10
19567;DHT22;9930;49.240;8.548;2023-08-08T13:37:30;27.30;43.90
19567;DHT22;9930;49.240;8.548;2023-08-08T13:40:00;27.30;44.20
19567;DHT22;9930;49.240;8.548;2023-08-08T13:42:30;27.40;44.00
19567;DHT22;9930;49.240;8.548;2023-08-08T13:44:58;27.40;44.00
19567;DHT22;9930;49.240;8.548;2023-08-08T13:47:27;27.50;44.00
19567;DHT22;9930;49.240;8.548;2023-08-08T13:49:53;27.50;43.60
19567;DHT22;9930;49.240;8.548;2023-08-08T13:52:24;27.60;43.80
19567;DHT22;9930;49.240;8.548;2023-08-08T13:54:50;27.60;43.40
19567;DHT22;9930;49.240;8.548;2023-08-08T13:57:19;27.60;43.20
19567;DHT22;9930;49.240;8.548;2023-08-08T13:59:47;27.60;43.10
19567;DHT22;9930;49.240;8.548;2023-08-08T14:02:17;27.50;42.60
19567;DHT22;9930;49.240;8.548;2023-08-08T14:04:44;27.50;42.80
19567;DHT22;9930;49.240;8.548;2023-08-08T14:07:14;27.40;42.90
19567;DHT22;9930;49.240;8.548;2023-08-08T14:09:40;27.40;42.60
19567;DHT22;9930;49.240;8.548;2023-08-08T14:12:06;27.30;42.60
19567;DHT22;9930;49.240;8.548;2023-08-08T14:14:31;27.20;42.60
19567;DHT22;9930;49.240;8.548;2023-08-08T14:16:58;27.20;42.80
19567;DHT22;9930;49.240;8.548;2023-08-08T14:19:23;27.20;43.00
19567;DHT22;9930;49.240;8.548;2023-08-08T14:21:49;27.20;43.00
19567;DHT22;9930;49.240;8.548;2023-08-08T14:24:17;27.30;43.30
19567;DHT22;9930;49.240;8.548;2023-08-08T14:26:43;27.30;42.90
19567;DHT22;9930;49.240;8.548;2023-08-08T14:29:10;27.30;43.10
19567;DHT22;9930;49.240;8.548;2023-08-08T14:31:38;27.30;43.00
19567;DHT22;9930;49.240;8.548;2023-08-08T14:34:04;27.30;43.00
19567;DHT22;9930;49.240;8.548;2023-08-08T14:36:33;27.30;43.30
19567;DHT22;9930;49.240;8.548;2023-08-08T14:39:01;27.30;43.00
19567;DHT22;9930;49.240;8.548;2023-08-08T14:41:27;27.40;43.00
19567;DHT22;9930;49.240;8.548;2023-08-08T14:43:53;27.40;43.10
19567;DHT22;9930;49.240;8.548;2023-08-08T14:46:19;27.40;42.90
19567;DHT22;9930;49.240;8.548;2023-08-08T14:48:52;27.40;42.90
19567;DHT22;9930;49.240;8.548;2023-08-08T14:51:17;27.40;42.80
19567;DHT22;9930;49.240;8.548;2023-08-08T14:53:44;27.40;42.80
19567;DHT22;9930;49.240;8.548;2023-08-08T14:56:10;27.40;42.60
19567;DHT22;9930;49.240;8.548;2023-08-08T14:58:38;27.40;42.30
19567;DHT22;9930;49.240;8.548;2023-08-08T15:01:07;27.30;42.30
19567;DHT22;9930;49.240;8.548;2023-08-08T15:03:33;27.30;42.20
19567;DHT22;9930;49.240;8.548;2023-08-08T15:06:01;27.20;41.90
19567;DHT22;9930;49.240;8.548;2023-08-08T15:08:31;27.10;41.70
19567;DHT22;9930;49.240;8.548;2023-08-08T15:10:58;26.90;41.80
19567;DHT22;9930;49.240;8.548;2023-08-08T15:13:28;26.80;42.50
19567;DHT22;9930;49.240;8.548;2023-08-08T15:15:58;26.70;42.20
19567;DHT22;9930;49.240;8.548;2023-08-08T15:18:26;26.60;42.50
19567;DHT22;9930;49.240;8.548;2023-08-08T15:20:55;26.50;42.70
19567;DHT22;9930;49.240;8.548;2023-08-08T15:23:25;26.50;42.70
19567;DHT22;9930;49.240;8.548;2023-08-08T15:25:51;26.40;42.80
19567;DHT22;9930;49.240;8.548;2023-08-08T15:28:16;26.30;42.80
19567;DHT22;9930;49.240;8.548;2023-08-08T15:30:42;26.30;43.00
19567;DHT22;9930;49.240;8.548;2023-08-08T15:33:08;26.30;43.20
19567;DHT22;9930;49.240;8.548;2023-08-08T15:35:34;26.30;43.60
19567;DHT22;9930;49.240;8.548;2023-08-08T15:37:59;26.30;43.60
19567;DHT22;9930;49.240;8.548;2023-08-08T15:40:26;26.30;43.60
19567;DHT22;9930;49.240;8.548;2023-08-08T15:42:53;26.20;43.70
19567;DHT22;9930;49.240;8.548;2023-08-08T15:45:18;26.30;43.90
19567;DHT22;9930;49.240;8.548;2023-08-08T15:47:46;26.30;44.00
19567;DHT22;9930;49.240;8.548;2023-08-08T15:50:13;26.40;44.10
19567;DHT22;9930;49.240;8.548;2023-08-08T15:52:38;26.40;44.00
19567;DHT22;9930;49.240;8.548;2023-08-08T15:55:04;26.50;44.20
19567;DHT22;9930;49.240;8.548;2023-08-08T15:57:37;26.50;44.20